createdAt,value
2018-10-12T00:01:35.763Z,13.20
2018-10-12T00:04:04.299Z,13.30
2018-10-12T00:06:32.826Z,13.20
2018-10-12T00:09:01.331Z,13.10
2018-10-12T00:11:29.860Z,13.20
2018-10-12T00:13:58.374Z,13.20
2018-10-12T00:16:26.891Z,13.10
2018-10-12T00:18:55.439Z,13.10
2018-10-12T00:21:23.942Z,13.10
2018-10-12T00:23:52.411Z,13.10
2018-10-12T00:26:20.948Z,13.00
2018-10-12T00:28:49.465Z,13.00
2018-10-12T00:31:17.970Z,13.00
2018-10-12T00:33:46.564Z,13.00
2018-10-12T00:36:15.059Z,12.90
2018-10-12T00:38:43.518Z,12.80
2018-10-12T00:41:12.013Z,12.70
2018-10-12T00:43:40.462Z,12.70
2018-10-12T00:46:08.941Z,12.70
2018-10-12T00:48:37.394Z,12.70
2018-10-12T00:51:05.905Z,12.60
2018-10-12T00:53:34.532Z,12.60
2018-10-12T00:56:03.966Z,12.50
2018-10-12T00:58:32.471Z,12.50
2018-10-12T01:01:00.942Z,12.40
2018-10-12T01:03:29.424Z,12.30
2018-10-12T01:05:57.980Z,12.20
2018-10-12T01:08:26.517Z,12.20
2018-10-12T01:10:55.071Z,12.10
2018-10-12T01:13:23.554Z,12.10
2018-10-12T01:15:52.098Z,12.00
2018-10-12T01:18:20.596Z,11.90
2018-10-12T01:20:49.152Z,12.00
2018-10-12T01:23:17.789Z,12.00
2018-10-12T01:25:46.543Z,12.00
2018-10-12T01:28:15.161Z,12.00
2018-10-12T01:30:43.683Z,11.90
2018-10-12T01:33:18.933Z,11.80
2018-10-12T01:35:47.467Z,11.80
2018-10-12T01:38:15.974Z,11.70
2018-10-12T01:40:47.416Z,11.60
2018-10-12T01:43:15.910Z,11.60
2018-10-12T01:45:44.431Z,11.60
2018-10-12T01:48:12.932Z,11.50
2018-10-12T01:50:41.471Z,11.30
2018-10-12T01:53:10.072Z,11.40
2018-10-12T01:55:38.555Z,11.40
2018-10-12T01:58:07.139Z,11.40
2018-10-12T02:00:35.628Z,11.50
2018-10-12T02:03:04.168Z,11.40
2018-10-12T02:05:32.664Z,11.50
2018-10-12T02:08:01.232Z,11.60
2018-10-12T02:10:29.706Z,11.50
2018-10-12T02:12:58.180Z,11.50
2018-10-12T02:15:26.691Z,11.50
2018-10-12T02:17:55.144Z,11.50
2018-10-12T02:20:23.764Z,11.60
2018-10-12T02:22:52.257Z,11.60
2018-10-12T02:25:20.786Z,11.70
2018-10-12T02:30:48.751Z,11.70
2018-10-12T02:33:17.211Z,11.60
2018-10-12T02:35:45.710Z,11.60
2018-10-12T02:38:14.190Z,11.50
2018-10-12T02:40:42.641Z,11.50
2018-10-12T02:43:11.180Z,11.40
2018-10-12T02:45:39.630Z,11.40
2018-10-12T02:48:08.527Z,11.40
2018-10-12T02:50:37.010Z,11.30
2018-10-12T02:53:05.664Z,11.30
2018-10-12T02:55:34.227Z,11.20
2018-10-12T02:58:02.780Z,11.10
2018-10-12T03:00:31.259Z,11.20
2018-10-12T03:02:59.773Z,11.10
2018-10-12T03:05:28.259Z,11.10
2018-10-12T03:07:56.780Z,11.00
2018-10-12T03:10:25.267Z,10.90
2018-10-12T03:12:53.730Z,11.00
2018-10-12T03:15:22.327Z,11.00
2018-10-12T03:17:50.812Z,11.00
2018-10-12T03:20:19.343Z,10.90
2018-10-12T03:22:47.928Z,10.80
2018-10-12T03:25:16.512Z,10.90
2018-10-12T03:27:56.279Z,10.90
2018-10-12T03:30:24.967Z,10.90
2018-10-12T03:32:56.456Z,10.90
2018-10-12T03:35:25.064Z,10.90
2018-10-12T03:37:53.626Z,10.80
2018-10-12T03:40:22.130Z,10.80
2018-10-12T03:42:50.703Z,10.80
2018-10-12T03:45:19.241Z,10.80
2018-10-12T03:47:47.808Z,10.70
2018-10-12T03:50:16.313Z,10.80
2018-10-12T03:52:44.936Z,10.80
2018-10-12T03:55:13.529Z,10.80
2018-10-12T03:57:42.022Z,10.80
2018-10-12T04:00:10.618Z,10.90
2018-10-12T04:02:39.205Z,10.90
2018-10-12T04:05:07.862Z,10.80
2018-10-12T04:07:37.264Z,10.80
2018-10-12T04:10:05.881Z,10.80
2018-10-12T04:12:34.406Z,10.80
2018-10-12T04:15:02.946Z,10.80
2018-10-12T04:17:31.452Z,10.80
2018-10-12T04:20:00.100Z,10.70
2018-10-12T04:22:28.670Z,10.70
2018-10-12T04:24:57.129Z,10.60
2018-10-12T04:27:25.683Z,10.60
2018-10-12T04:29:54.206Z,10.50
2018-10-12T04:32:22.716Z,10.50
2018-10-12T04:34:51.205Z,10.40
2018-10-12T04:37:19.718Z,10.40
2018-10-12T04:39:56.485Z,10.40
2018-10-12T04:42:25.067Z,10.50
2018-10-12T04:44:53.585Z,10.40
2018-10-12T04:47:24.773Z,10.40
2018-10-12T04:49:53.243Z,10.40
2018-10-12T04:52:23.308Z,10.40
2018-10-12T04:54:51.904Z,10.30
2018-10-12T04:57:20.418Z,10.30
2018-10-12T04:59:48.968Z,10.30
2018-10-12T05:02:17.542Z,10.20
2018-10-12T05:04:46.103Z,10.20
2018-10-12T05:07:16.540Z,10.40
2018-10-12T05:09:45.111Z,10.40
2018-10-12T05:12:13.677Z,10.30
2018-10-12T05:14:42.207Z,10.40
2018-10-12T05:17:10.872Z,10.30
2018-10-12T05:19:39.475Z,10.20
2018-10-12T05:22:08.231Z,10.10
2018-10-12T05:24:36.815Z,10.20
2018-10-12T05:27:05.749Z,10.20
2018-10-12T05:29:34.364Z,10.20
2018-10-12T05:32:02.976Z,10.20
2018-10-12T05:34:34.754Z,10.20
2018-10-12T05:37:03.346Z,10.20
2018-10-12T05:39:31.933Z,10.20
2018-10-12T05:42:00.525Z,10.20
2018-10-12T05:44:29.137Z,10.20
2018-10-12T05:46:57.684Z,10.20
2018-10-12T05:49:37.568Z,10.20
2018-10-12T05:52:06.311Z,10.10
2018-10-12T05:54:34.926Z,10.10
2018-10-12T05:57:03.552Z,10.20
2018-10-12T05:59:32.117Z,10.20
2018-10-12T06:02:00.652Z,10.20
2018-10-12T06:04:29.231Z,10.20
2018-10-12T06:06:58.121Z,10.20
2018-10-12T06:09:26.736Z,10.20
2018-10-12T06:11:55.316Z,10.30
2018-10-12T06:14:23.843Z,10.30
2018-10-12T06:16:52.527Z,10.40
2018-10-12T06:19:21.324Z,10.50
2018-10-12T06:21:49.934Z,10.50
2018-10-12T06:24:18.561Z,10.50
2018-10-12T06:26:48.376Z,10.50
2018-10-12T06:29:17.046Z,10.60
2018-10-12T06:31:45.596Z,10.60
2018-10-12T06:34:14.225Z,10.60
2018-10-12T06:36:43.253Z,10.70
2018-10-12T06:39:12.026Z,10.80
2018-10-12T06:41:41.234Z,10.90
2018-10-12T06:44:09.750Z,10.90
2018-10-12T06:46:38.340Z,11.00
2018-10-12T06:49:07.003Z,11.10
2018-10-12T06:51:35.514Z,11.20
2018-10-12T06:54:04.146Z,11.30
2018-10-12T06:56:33.112Z,11.40
2018-10-12T06:59:01.845Z,11.50
2018-10-12T07:01:30.800Z,11.60
2018-10-12T07:03:59.842Z,11.80
2018-10-12T07:06:29.214Z,11.90
2018-10-12T07:08:57.879Z,12.10
2018-10-12T07:11:26.450Z,12.20
2018-10-12T07:13:55.174Z,12.20
2018-10-12T07:16:23.716Z,12.40
2018-10-12T07:18:52.299Z,12.50
2018-10-12T07:21:21.018Z,12.60
2018-10-12T07:23:49.622Z,12.70
2018-10-12T07:26:18.184Z,12.80
2018-10-12T07:28:46.745Z,12.90
2018-10-12T07:31:15.280Z,13.10
2018-10-12T07:33:43.904Z,13.20
2018-10-12T07:36:12.485Z,13.30
2018-10-12T07:38:41.098Z,13.40
2018-10-12T07:41:09.656Z,13.50
2018-10-12T07:43:38.282Z,13.60
2018-10-12T07:46:07.059Z,13.80
2018-10-12T07:48:35.669Z,14.00
2018-10-12T07:51:04.251Z,14.10
2018-10-12T07:53:32.771Z,14.30
2018-10-12T07:56:01.291Z,14.50
2018-10-12T07:58:29.943Z,14.60
2018-10-12T08:00:58.553Z,14.70
2018-10-12T08:03:27.101Z,14.90
2018-10-12T08:05:55.661Z,15.10
2018-10-12T08:08:24.305Z,15.40
2018-10-12T08:10:52.856Z,15.40
2018-10-12T08:13:21.394Z,15.70
2018-10-12T08:15:52.638Z,16.10
2018-10-12T08:18:21.298Z,16.10
2018-10-12T08:20:49.883Z,16.30
2018-10-12T08:23:18.515Z,16.30
2018-10-12T08:25:47.123Z,16.60
2018-10-12T08:28:15.732Z,16.80
2018-10-12T08:30:44.352Z,16.90
2018-10-12T08:33:12.943Z,17.00
2018-10-12T08:35:41.578Z,17.00
2018-10-12T08:38:10.299Z,17.30
2018-10-12T08:40:38.875Z,17.30
2018-10-12T08:43:07.640Z,17.40
2018-10-12T08:45:36.198Z,17.50
2018-10-12T08:48:04.809Z,17.80
2018-10-12T08:50:33.379Z,17.90
2018-10-12T08:53:01.920Z,18.10
2018-10-12T08:55:30.522Z,18.20
2018-10-12T08:57:59.038Z,18.50
2018-10-12T09:00:27.620Z,18.80
2018-10-12T09:02:56.347Z,18.90
2018-10-12T09:05:25.181Z,19.00
2018-10-12T09:07:53.788Z,19.10
2018-10-12T09:10:22.369Z,19.40
2018-10-12T09:12:50.932Z,19.70
2018-10-12T09:15:19.604Z,19.90
2018-10-12T09:17:48.195Z,20.00
2018-10-12T09:20:16.857Z,20.30
2018-10-12T09:22:45.379Z,20.40
2018-10-12T09:25:13.992Z,20.50
2018-10-12T09:27:42.604Z,20.50
2018-10-12T09:30:11.256Z,20.20
2018-10-12T09:32:39.793Z,20.70
2018-10-12T09:35:08.406Z,20.90
2018-10-12T09:37:36.902Z,21.00
2018-10-12T09:40:05.516Z,21.10
2018-10-12T09:42:34.196Z,21.20
2018-10-12T09:45:02.772Z,21.30
2018-10-12T09:47:31.283Z,21.60
2018-10-12T09:49:59.879Z,21.50
2018-10-12T09:52:28.463Z,22.00
2018-10-12T09:54:57.162Z,22.00
2018-10-12T09:57:41.520Z,22.10
2018-10-12T10:00:15.579Z,22.60
2018-10-12T10:02:48.389Z,22.70
2018-10-12T10:05:17.478Z,22.90
2018-10-12T10:07:46.070Z,23.10
2018-10-12T10:10:14.606Z,23.20
2018-10-12T10:12:43.196Z,23.50
2018-10-12T10:15:11.790Z,23.70
2018-10-12T10:17:40.369Z,23.60
2018-10-12T10:20:09.022Z,23.60
2018-10-12T10:22:37.800Z,23.80
2018-10-12T10:25:06.422Z,23.90
2018-10-12T10:27:34.926Z,23.90
2018-10-12T10:30:03.473Z,23.80
2018-10-12T10:32:32.048Z,23.80
2018-10-12T10:35:00.582Z,24.20
2018-10-12T10:37:29.190Z,24.20
2018-10-12T10:39:57.755Z,24.20
2018-10-12T10:42:26.297Z,24.50
2018-10-12T10:47:54.049Z,25.00
2018-10-12T10:50:22.650Z,25.30
2018-10-12T10:52:51.292Z,25.20
2018-10-12T10:55:19.912Z,25.30
2018-10-12T10:57:49.165Z,25.20
2018-10-12T11:00:18.367Z,25.40
2018-10-12T11:02:46.929Z,25.50
2018-10-12T11:05:15.397Z,25.50
2018-10-12T11:07:43.931Z,25.20
2018-10-12T11:10:12.617Z,25.20
2018-10-12T11:12:41.523Z,25.60
2018-10-12T11:15:10.020Z,25.80
2018-10-12T11:17:38.553Z,25.80
2018-10-12T11:20:38.375Z,26.10
2018-10-12T11:23:06.990Z,26.20
2018-10-12T11:25:35.521Z,26.70
2018-10-12T11:28:04.006Z,26.20
2018-10-12T11:30:32.635Z,26.50
2018-10-12T11:33:01.471Z,26.80
2018-10-12T11:35:30.007Z,27.10
2018-10-12T11:37:59.219Z,27.30
2018-10-12T11:40:27.920Z,27.40
2018-10-12T11:43:07.725Z,27.10
2018-10-12T11:45:36.334Z,26.70
2018-10-12T11:48:04.887Z,26.90
2018-10-12T11:50:33.595Z,27.10
2018-10-12T11:53:02.338Z,27.20
2018-10-12T11:55:31.050Z,27.40
2018-10-12T11:58:01.712Z,27.60
2018-10-12T12:00:30.363Z,27.70
2018-10-12T12:02:58.923Z,27.70
2018-10-12T12:05:27.475Z,27.10
2018-10-12T12:07:56.433Z,27.50
2018-10-12T12:10:25.189Z,27.20
2018-10-12T12:12:53.886Z,26.90
2018-10-12T12:15:22.530Z,26.90
2018-10-12T12:17:51.139Z,26.60
2018-10-12T12:20:19.673Z,26.60
2018-10-12T12:22:48.281Z,26.50
2018-10-12T12:25:16.865Z,26.00
2018-10-12T12:27:45.580Z,25.70
2018-10-12T12:30:14.114Z,25.70
2018-10-12T12:32:42.726Z,25.70
2018-10-12T12:35:11.578Z,25.60
2018-10-12T12:37:40.029Z,25.30
2018-10-12T12:40:08.872Z,25.30
2018-10-12T12:42:37.640Z,25.40
2018-10-12T12:45:07.527Z,25.20
2018-10-12T12:47:36.488Z,25.10
2018-10-12T12:50:05.422Z,25.00
2018-10-12T12:52:34.040Z,24.90
2018-10-12T12:55:02.645Z,24.80
2018-10-12T12:57:31.378Z,24.70
2018-10-12T12:59:59.957Z,24.40
2018-10-12T13:02:28.559Z,24.40
2018-10-12T13:04:58.230Z,24.30
2018-10-12T13:07:26.863Z,24.10
2018-10-12T13:09:55.862Z,24.00
2018-10-12T13:12:24.462Z,24.00
2018-10-12T13:14:53.098Z,23.90
2018-10-12T13:17:21.685Z,24.00
2018-10-12T13:19:50.260Z,23.90
2018-10-12T13:22:18.903Z,23.80
2018-10-12T13:24:47.469Z,23.80
2018-10-12T13:27:16.055Z,23.50
2018-10-12T13:29:44.621Z,23.70
2018-10-12T13:32:13.209Z,23.60
2018-10-12T13:34:41.769Z,23.40
2018-10-12T13:37:10.336Z,23.40
2018-10-12T13:39:38.982Z,23.50
2018-10-12T13:42:07.636Z,23.60
2018-10-12T13:44:36.363Z,23.50
2018-10-12T13:47:04.977Z,23.40
2018-10-12T13:49:33.766Z,23.20
2018-10-12T13:52:02.443Z,23.30
2018-10-12T13:54:31.211Z,23.20
2018-10-12T13:57:01.213Z,23.20
2018-10-12T13:59:30.904Z,23.20
2018-10-12T14:02:00.220Z,23.10
2018-10-12T14:04:29.460Z,23.00
2018-10-12T14:07:00.222Z,23.00
2018-10-12T14:09:28.868Z,22.90
2018-10-12T14:11:57.832Z,23.00
2018-10-12T14:14:26.568Z,22.90
2018-10-12T14:16:55.138Z,22.80
2018-10-12T14:19:24.025Z,22.80
2018-10-12T14:21:52.371Z,22.90
2018-10-12T14:24:20.983Z,22.80
2018-10-12T14:26:49.716Z,22.80
2018-10-12T14:29:18.312Z,22.60
2018-10-12T14:31:46.841Z,22.50
2018-10-12T14:34:15.393Z,22.60
2018-10-12T14:36:44.000Z,22.50
2018-10-12T14:39:12.644Z,22.40
2018-10-12T14:41:41.376Z,22.40
2018-10-12T14:44:10.029Z,22.30
2018-10-12T14:46:38.575Z,22.40
2018-10-12T14:49:07.145Z,22.30
2018-10-12T14:51:35.943Z,22.30
2018-10-12T14:54:04.484Z,22.20
2018-10-12T14:56:33.079Z,22.10
2018-10-12T14:59:01.660Z,22.10
2018-10-12T15:01:30.210Z,21.90
2018-10-12T15:03:58.704Z,21.70
2018-10-12T15:06:27.225Z,21.60
2018-10-12T15:08:55.729Z,21.50
2018-10-12T15:11:24.384Z,21.30
2018-10-12T15:13:52.964Z,21.20
2018-10-12T15:16:21.588Z,21.10
2018-10-12T15:18:50.087Z,21.00
2018-10-12T15:21:18.717Z,21.00
2018-10-12T15:23:47.199Z,20.90
2018-10-12T15:26:15.941Z,20.70
2018-10-12T15:28:44.490Z,20.60
2018-10-12T15:31:13.240Z,20.50
2018-10-12T15:33:42.428Z,20.40
2018-10-12T15:36:11.017Z,20.10
2018-10-12T15:38:39.592Z,20.20
2018-10-12T15:41:08.498Z,20.10
2018-10-12T15:43:37.697Z,20.00
2018-10-12T15:46:06.180Z,20.00
2018-10-12T15:48:34.689Z,19.90
2018-10-12T15:51:03.294Z,19.90
2018-10-12T15:53:31.917Z,19.90
2018-10-12T15:56:00.496Z,19.70
2018-10-12T15:58:28.957Z,19.70
2018-10-12T16:00:57.461Z,19.60
2018-10-12T16:03:25.994Z,19.50
2018-10-12T16:05:54.652Z,19.40
2018-10-12T16:08:23.251Z,19.30
2018-10-12T16:10:53.580Z,19.20
2018-10-12T16:13:22.349Z,19.10
2018-10-12T16:15:52.962Z,19.10
2018-10-12T16:18:22.952Z,19.10
2018-10-12T16:20:55.558Z,19.10
2018-10-12T16:23:25.850Z,18.80
2018-10-12T16:26:06.892Z,18.80
2018-10-12T16:28:35.437Z,18.80
2018-10-12T16:31:04.037Z,18.80
2018-10-12T16:33:32.525Z,18.70
2018-10-12T16:36:01.271Z,18.60
2018-10-12T16:38:29.763Z,18.60
2018-10-12T16:40:58.349Z,18.50
2018-10-12T16:43:26.930Z,18.40
2018-10-12T16:45:56.963Z,18.20
2018-10-12T16:48:25.553Z,18.20
2018-10-12T16:50:54.145Z,18.20
2018-10-12T16:53:23.042Z,18.10
2018-10-12T16:55:58.209Z,18.00
2018-10-12T16:58:26.807Z,17.90
2018-10-12T17:00:55.399Z,17.80
2018-10-12T17:03:23.905Z,17.60
2018-10-12T17:05:52.533Z,17.70
2018-10-12T17:08:21.167Z,17.70
2018-10-12T17:10:49.747Z,17.50
2018-10-12T17:13:18.290Z,17.20
2018-10-12T17:15:47.045Z,17.10
2018-10-12T17:18:15.677Z,17.10
2018-10-12T17:20:45.069Z,17.10
2018-10-12T17:23:13.647Z,17.00
2018-10-12T17:25:42.266Z,16.80
2018-10-12T17:28:11.104Z,16.60
2018-10-12T17:30:39.759Z,16.60
2018-10-12T17:33:08.931Z,16.60
2018-10-12T17:35:37.790Z,16.40
2018-10-12T17:38:06.715Z,16.40
2018-10-12T17:40:35.682Z,16.30
2018-10-12T17:43:04.799Z,16.40
2018-10-12T17:45:33.532Z,16.50
2018-10-12T17:48:02.104Z,16.40
2018-10-12T17:50:31.079Z,16.30
2018-10-12T17:53:00.000Z,16.10
2018-10-12T17:55:28.565Z,16.00
2018-10-12T17:57:57.155Z,15.90
2018-10-12T18:00:26.082Z,15.70
2018-10-12T18:02:55.264Z,15.60
2018-10-12T18:05:24.731Z,15.50
2018-10-12T18:07:53.352Z,15.40
2018-10-12T18:10:21.910Z,15.30
2018-10-12T18:12:51.068Z,15.20
2018-10-12T18:15:19.826Z,15.10
2018-10-12T18:17:48.882Z,15.10
2018-10-12T18:20:17.827Z,15.00
2018-10-12T18:22:46.668Z,14.90
2018-10-12T18:25:15.706Z,14.80
2018-10-12T18:27:44.585Z,14.80
2018-10-12T18:30:13.303Z,14.70
2018-10-12T18:32:41.968Z,14.60
2018-10-12T18:35:10.904Z,14.50
2018-10-12T18:37:39.702Z,14.40
2018-10-12T18:40:08.561Z,14.40
2018-10-12T18:42:37.734Z,14.40
2018-10-12T18:45:06.443Z,14.30
2018-10-12T18:47:35.820Z,14.30
2018-10-12T18:50:04.875Z,14.30
2018-10-12T18:52:34.440Z,14.40
2018-10-12T18:55:03.212Z,14.40
2018-10-12T18:57:34.451Z,14.40
2018-10-12T19:00:04.838Z,14.30
2018-10-12T19:02:33.944Z,14.40
2018-10-12T19:05:03.757Z,14.30
2018-10-12T19:07:32.704Z,14.20
2018-10-12T19:10:01.433Z,14.10
2018-10-12T19:12:30.153Z,14.00
2018-10-12T19:14:58.830Z,13.90
2018-10-12T19:17:27.619Z,14.00
2018-10-12T19:19:56.173Z,14.00
2018-10-12T19:22:24.682Z,13.90
2018-10-12T19:24:53.221Z,13.90
2018-10-12T19:27:21.762Z,13.90
2018-10-12T19:29:50.397Z,13.90
2018-10-12T19:32:19.005Z,13.80
2018-10-12T19:34:47.525Z,13.70
2018-10-12T19:37:16.045Z,13.50
2018-10-12T19:39:44.697Z,13.40
2018-10-12T19:42:13.245Z,13.30
2018-10-12T19:44:41.853Z,13.20
2018-10-12T19:47:10.420Z,13.30
2018-10-12T19:49:39.002Z,13.40
2018-10-12T19:52:07.594Z,13.40
2018-10-12T19:54:36.128Z,13.30
2018-10-12T19:57:04.798Z,13.30
2018-10-12T19:59:33.418Z,13.30
2018-10-12T20:02:01.991Z,13.30
2018-10-12T20:04:30.533Z,13.30
2018-10-12T20:06:59.112Z,13.20
2018-10-12T20:09:27.685Z,13.20
2018-10-12T20:11:56.352Z,13.10
2018-10-12T20:14:24.960Z,13.10
2018-10-12T20:16:53.519Z,13.10
2018-10-12T20:19:22.094Z,13.10
2018-10-12T20:21:50.684Z,13.00
2018-10-12T20:24:19.337Z,13.10
2018-10-12T20:26:48.428Z,13.10
2018-10-12T20:29:17.130Z,13.10
2018-10-12T20:31:45.744Z,13.10
2018-10-12T20:34:14.272Z,13.10
2018-10-12T20:36:42.847Z,13.20
2018-10-12T20:39:12.322Z,13.40
2018-10-12T20:41:41.083Z,13.20
2018-10-12T20:44:09.837Z,13.20
2018-10-12T20:46:38.666Z,13.20
2018-10-12T20:49:07.272Z,13.10
2018-10-12T20:51:36.140Z,13.10
2018-10-12T20:54:04.741Z,12.90
2018-10-12T20:56:33.266Z,12.90
2018-10-12T20:59:03.685Z,12.80
2018-10-12T21:01:32.347Z,12.80
2018-10-12T21:04:01.022Z,12.90
2018-10-12T21:06:29.517Z,12.90
2018-10-12T21:08:58.059Z,12.80
2018-10-12T21:11:26.561Z,12.80
2018-10-12T21:13:55.076Z,12.80
2018-10-12T21:16:23.648Z,12.80
2018-10-12T21:18:52.177Z,12.80
2018-10-12T21:21:20.718Z,12.90
2018-10-12T21:23:49.359Z,12.80
2018-10-12T21:26:17.895Z,12.80
2018-10-12T21:28:46.516Z,13.00
2018-10-12T21:31:15.061Z,13.00
2018-10-12T21:33:44.027Z,12.80
2018-10-12T21:36:12.906Z,12.50
2018-10-12T21:38:41.476Z,12.50
2018-10-12T21:41:10.010Z,12.50
2018-10-12T21:43:38.629Z,12.60
2018-10-12T21:46:07.177Z,12.60
2018-10-12T21:48:35.736Z,12.60
2018-10-12T21:51:04.322Z,12.60
2018-10-12T21:53:32.872Z,12.70
2018-10-12T21:56:01.449Z,12.80
2018-10-12T21:58:30.075Z,12.90
2018-10-12T22:01:04.226Z,12.80
2018-10-12T22:03:34.310Z,12.90
2018-10-12T22:06:02.831Z,12.90
2018-10-12T22:08:36.727Z,12.80
2018-10-12T22:11:06.005Z,12.80
2018-10-12T22:13:35.134Z,12.70
2018-10-12T22:16:03.763Z,12.70
2018-10-12T22:18:32.353Z,12.60
2018-10-12T22:21:00.848Z,12.70
2018-10-12T22:23:29.383Z,12.50
2018-10-12T22:25:58.161Z,12.60
2018-10-12T22:28:26.516Z,12.50
2018-10-12T22:30:54.989Z,12.40
2018-10-12T22:33:24.334Z,12.30
2018-10-12T22:35:52.887Z,12.30
2018-10-12T22:38:21.479Z,12.20
2018-10-12T22:40:50.162Z,12.10
2018-10-12T22:43:18.807Z,11.90
2018-10-12T22:45:47.289Z,11.90
2018-10-12T22:48:15.879Z,12.00
2018-10-12T22:50:44.380Z,11.90
2018-10-12T22:53:12.877Z,11.80
2018-10-12T22:55:41.400Z,11.80
2018-10-12T22:58:09.963Z,11.90
2018-10-12T23:00:38.458Z,11.80
2018-10-12T23:03:07.074Z,11.90
2018-10-12T23:05:38.658Z,11.80
2018-10-12T23:08:07.345Z,12.00
2018-10-12T23:10:35.816Z,12.00
2018-10-12T23:13:04.347Z,12.00
2018-10-12T23:15:32.809Z,12.10
2018-10-12T23:18:01.304Z,12.00
2018-10-12T23:20:29.874Z,12.00
2018-10-12T23:22:58.397Z,12.00
2018-10-12T23:25:26.914Z,12.00
2018-10-12T23:27:55.435Z,11.90
2018-10-12T23:30:24.001Z,11.80
2018-10-12T23:32:52.614Z,11.70
2018-10-12T23:35:21.114Z,11.70
2018-10-12T23:37:49.651Z,11.80
2018-10-12T23:40:18.150Z,11.70
2018-10-12T23:42:46.683Z,11.70
2018-10-12T23:45:15.232Z,11.60
2018-10-12T23:47:43.895Z,11.70
2018-10-12T23:50:12.461Z,11.60
2018-10-12T23:52:41.039Z,11.40
2018-10-12T23:55:09.527Z,11.30
2018-10-12T23:57:38.055Z,11.20
